sensor_id;sensor_type;location;lat;lon;timestamp;pressure;altitude;pressure_sealevel;temperature;humidity
71059;BME280;70265;47.576;19.270;2024-02-26T00:00:26;98010.66;;;8.30;100.00
71059;BME280;70265;47.576;19.270;2024-02-26T00:01:31;98017.88;;;8.36;100.00
71059;BME280;70265;47.576;19.270;2024-02-26T00:02:33;98015.72;;;8.32;100.00
71059;BME280;70265;47.576;19.270;2024-02-26T00:03:38;98014.91;;;8.31;100.00
71059;BME280;70265;47.576;19.270;2024-02-26T00:04:42;98019.16;;;8.32;100.00
71059;BME280;70265;47.576;19.270;2024-02-26T00:05:45;98009.22;;;8.36;100.00
71059;BME280;70265;47.576;19.270;2024-02-26T00:06:52;98010.03;;;8.36;100.00
71059;BME280;70265;47.576;19.270;2024-02-26T00:07:56;98011.34;;;8.32;100.00
71059;BME280;70265;47.576;19.270;2024-02-26T00:08:57;98012.97;;;8.33;100.00
71059;BME280;70265;47.576;19.270;2024-02-26T00:10:02;98016.22;;;8.35;100.00
71059;BME280;70265;47.576;19.270;2024-02-26T00:11:03;98009.88;;;8.38;100.00
71059;BME280;70265;47.576;19.270;2024-02-26T00:12:07;98011.34;;;8.32;100.00
71059;BME280;70265;47.576;19.270;2024-02-26T00:13:08;98012.66;;;8.36;100.00
71059;BME280;70265;47.576;19.270;2024-02-26T00:14:12;98002.53;;;8.33;100.00
71059;BME280;70265;47.576;19.270;2024-02-26T00:15:13;98010.50;;;8.32;100.00
71059;BME280;70265;47.576;19.270;2024-02-26T00:16:16;97999.41;;;8.30;100.00
71059;BME280;70265;47.576;19.270;2024-02-26T00:17:17;98010.50;;;8.32;100.00
71059;BME280;70265;47.576;19.270;2024-02-26T00:18:20;98007.06;;;8.31;100.00
71059;BME280;70265;47.576;19.270;2024-02-26T00:19:21;98007.06;;;8.31;100.00
71059;BME280;70265;47.576;19.270;2024-02-26T00:20:25;98003.31;;;8.34;100.00
71059;BME280;70265;47.576;19.270;2024-02-26T00:21:27;97994.19;;;8.30;100.00
71059;BME280;70265;47.576;19.270;2024-02-26T00:22:33;98003.50;;;8.32;100.00
71059;BME280;70265;47.576;19.270;2024-02-26T00:23:34;97998.28;;;8.32;100.00
71059;BME280;70265;47.576;19.270;2024-02-26T00:24:40;97995.81;;;8.31;100.00
71059;BME280;70265;47.576;19.270;2024-02-26T00:25:40;97990.44;;;8.32;100.00
71059;BME280;70265;47.576;19.270;2024-02-26T00:26:44;98004.97;;;8.35;100.00
71059;BME280;70265;47.576;19.270;2024-02-26T00:27:45;97996.97;;;8.36;100.00
71059;BME280;70265;47.576;19.270;2024-02-26T00:28:48;97992.72;;;8.35;100.00
71059;BME280;70265;47.576;19.270;2024-02-26T00:29:49;97997.81;;;8.37;100.00
71059;BME280;70265;47.576;19.270;2024-02-26T00:30:50;97993.69;;;8.34;100.00
71059;BME280;70265;47.576;19.270;2024-02-26T00:31:56;98000.56;;;8.35;100.00
71059;BME280;70265;47.576;19.270;2024-02-26T00:32:57;97991.91;;;8.35;100.00
71059;BME280;70265;47.576;19.270;2024-02-26T00:34:00;97999.59;;;8.36;100.00
71059;BME280;70265;47.576;19.270;2024-02-26T00:35:01;97993.38;;;8.37;100.00
71059;BME280;70265;47.576;19.270;2024-02-26T00:36:06;97992.56;;;8.37;100.00
71059;BME280;70265;47.576;19.270;2024-02-26T00:37:07;97989.47;;;8.33;100.00
71059;BME280;70265;47.576;19.270;2024-02-26T00:38:13;97993.03;;;8.32;100.00
71059;BME280;70265;47.576;19.270;2024-02-26T00:39:13;97981.91;;;8.30;100.00
71059;BME280;70265;47.576;19.270;2024-02-26T00:40:15;97989.13;;;8.36;100.00
71059;BME280;70265;47.576;19.270;2024-02-26T00:41:19;97983.25;;;8.34;100.00
71059;BME280;70265;47.576;19.270;2024-02-26T00:42:20;97988.97;;;8.38;100.00
71059;BME280;70265;47.576;19.270;2024-02-26T00:43:23;97994.19;;;8.38;100.00
71059;BME280;70265;47.576;19.270;2024-02-26T00:44:24;97995.19;;;8.37;100.00
71059;BME280;70265;47.576;19.270;2024-02-26T00:45:31;97987.63;;;8.34;100.00
71059;BME280;70265;47.576;19.270;2024-02-26T00:46:32;97975.72;;;8.31;100.00
71059;BME280;70265;47.576;19.270;2024-02-26T00:47:36;97986.34;;;8.38;100.00
71059;BME280;70265;47.576;19.270;2024-02-26T00:48:37;97986.53;;;8.36;100.00
71059;BME280;70265;47.576;19.270;2024-02-26T00:49:40;97988.97;;;8.38;100.00
71059;BME280;70265;47.576;19.270;2024-02-26T00:50:42;97991.75;;;8.36;100.00
71059;BME280;70265;47.576;19.270;2024-02-26T00:51:46;97988.13;;;8.37;100.00
71059;BME280;70265;47.576;19.270;2024-02-26T00:52:46;97990.09;;;8.35;100.00
71059;BME280;70265;47.576;19.270;2024-02-26T00:53:53;97990.44;;;8.32;100.00
71059;BME280;70265;47.576;19.270;2024-02-26T00:54:54;97973.13;;;8.31;100.00
71059;BME280;70265;47.576;19.270;2024-02-26T00:55:55;97991.25;;;8.33;100.00
71059;BME280;70265;47.576;19.270;2024-02-26T00:56:59;97982.75;;;8.31;100.00
71059;BME280;70265;47.576;19.270;2024-02-26T00:58:00;97986.69;;;8.35;100.00
71059;BME280;70265;47.576;19.270;2024-02-26T00:59:01;97984.88;;;8.35;100.00
71059;BME280;70265;47.576;19.270;2024-02-26T01:00:06;97985.84;;;8.34;100.00
71059;BME280;70265;47.576;19.270;2024-02-26T01:01:09;97974.06;;;8.30;100.00
71059;BME280;70265;47.576;19.270;2024-02-26T01:02:12;97971.97;;;8.34;100.00
71059;BME280;70265;47.576;19.270;2024-02-26T01:03:13;97976.41;;;8.33;100.00
71059;BME280;70265;47.576;19.270;2024-02-26T01:04:16;97977.19;;;8.34;100.00
71059;BME280;70265;47.576;19.270;2024-02-26T01:05:18;97977.88;;;8.36;100.00
71059;BME280;70265;47.576;19.270;2024-02-26T01:06:23;97979.00;;;8.33;100.00
71059;BME280;70265;47.576;19.270;2024-02-26T01:07:24;97977.38;;;8.32;100.00
71059;BME280;70265;47.576;19.270;2024-02-26T01:08:27;97979.66;;;8.35;100.00
71059;BME280;70265;47.576;19.270;2024-02-26T01:09:31;97970.03;;;8.36;100.00
71059;BME280;70265;47.576;19.270;2024-02-26T01:10:34;97975.56;;;8.33;100.00
71059;BME280;70265;47.576;19.270;2024-02-26T01:11:36;97975.25;;;8.36;100.00
71059;BME280;70265;47.576;19.270;2024-02-26T01:12:39;97971.66;;;8.37;100.00
71059;BME280;70265;47.576;19.270;2024-02-26T01:13:40;97973.59;;;8.35;100.00
71059;BME280;70265;47.576;19.270;2024-02-26T01:14:44;97979.50;;;8.37;100.00
71059;BME280;70265;47.576;19.270;2024-02-26T01:15:44;97976.06;;;8.36;100.00
71059;BME280;70265;47.576;19.270;2024-02-26T01:16:48;97974.44;;;8.35;100.00
71059;BME280;70265;47.576;19.270;2024-02-26T01:17:49;97982.28;;;8.35;100.00
71059;BME280;70265;47.576;19.270;2024-02-26T01:18:53;97977.19;;;8.34;100.00
71059;BME280;70265;47.576;19.270;2024-02-26T01:19:56;97971.97;;;8.34;100.00
71059;BME280;70265;47.576;19.270;2024-02-26T01:20:57;97971.19;;;8.33;100.00
71059;BME280;70265;47.576;19.270;2024-02-26T01:22:01;97974.75;;;8.32;100.00
71059;BME280;70265;47.576;19.270;2024-02-26T01:23:02;97971.81;;;8.35;100.00
71059;BME280;70265;47.576;19.270;2024-02-26T01:24:06;97974.56;;;8.34;100.00
71059;BME280;70265;47.576;19.270;2024-02-26T01:25:14;97976.22;;;8.35;100.00
71059;BME280;70265;47.576;19.270;2024-02-26T01:26:18;97977.88;;;8.36;100.00
71059;BME280;70265;47.576;19.270;2024-02-26T01:27:19;97979.66;;;8.35;100.00
71059;BME280;70265;47.576;19.270;2024-02-26T01:28:27;97974.75;;;8.32;100.00
71059;BME280;70265;47.576;19.270;2024-02-26T01:29:28;97971.19;;;8.33;100.00
71059;BME280;70265;47.576;19.270;2024-02-26T01:30:31;97954.19;;;8.29;100.00
71059;BME280;70265;47.576;19.270;2024-02-26T01:31:32;97953.84;;;8.32;100.00
71059;BME280;70265;47.576;19.270;2024-02-26T01:32:36;97959.91;;;8.33;100.00
71059;BME280;70265;47.576;19.270;2024-02-26T01:33:36;97956.47;;;8.32;100.00
71059;BME280;70265;47.576;19.270;2024-02-26T01:34:37;97956.63;;;8.31;100.00
71059;BME280;70265;47.576;19.270;2024-02-26T01:35:41;97960.06;;;8.31;100.00
71059;BME280;70265;47.576;19.270;2024-02-26T01:36:42;97956.63;;;8.31;100.00
71059;BME280;70265;47.576;19.270;2024-02-26T01:37:45;97955.16;;;8.28;100.00
71059;BME280;70265;47.576;19.270;2024-02-26T01:38:46;97952.38;;;8.30;100.00
71059;BME280;70265;47.576;19.270;2024-02-26T01:39:50;97960.72;;;8.33;100.00
71059;BME280;70265;47.576;19.270;2024-02-26T01:40:56;97961.50;;;8.34;100.00
71059;BME280;70265;47.576;19.270;2024-02-26T01:41:59;97960.72;;;8.33;100.00
71059;BME280;70265;47.576;19.270;2024-02-26T01:43:00;97949.59;;;8.31;100.00
71059;BME280;70265;47.576;19.270;2024-02-26T01:44:04;97947.00;;;8.31;100.00
71059;BME280;70265;47.576;19.270;2024-02-26T01:45:14;97946.00;;;8.32;100.00
71059;BME280;70265;47.576;19.270;2024-02-26T01:46:22;97951.25;;;8.32;100.00
71059;BME280;70265;47.576;19.270;2024-02-26T01:47:23;97950.41;;;8.32;100.00
71059;BME280;70265;47.576;19.270;2024-02-26T01:48:27;97953.03;;;8.32;100.00
71059;BME280;70265;47.576;19.270;2024-02-26T01:49:28;97953.84;;;8.32;100.00
71059;BME280;70265;47.576;19.270;2024-02-26T01:50:32;97950.56;;;8.30;100.00
71059;BME280;70265;47.576;19.270;2024-02-26T01:51:35;97953.03;;;8.32;100.00
71059;BME280;70265;47.576;19.270;2024-02-26T01:52:38;97945.53;;;8.29;100.00
71059;BME280;70265;47.576;19.270;2024-02-26T01:53:40;97953.84;;;8.32;100.00
71059;BME280;70265;47.576;19.270;2024-02-26T01:54:45;97952.22;;;8.31;100.00
71059;BME280;70265;47.576;19.270;2024-02-26T01:55:46;97952.22;;;8.31;100.00
71059;BME280;70265;47.576;19.270;2024-02-26T01:56:52;97950.75;;;8.29;100.00
71059;BME280;70265;47.576;19.270;2024-02-26T01:57:53;97955.00;;;8.30;100.00
71059;BME280;70265;47.576;19.270;2024-02-26T01:58:57;97950.75;;;8.29;100.00
71059;BME280;70265;47.576;19.270;2024-02-26T01:59:59;97942.22;;;8.27;100.00
71059;BME280;70265;47.576;19.270;2024-02-26T02:01:05;97955.00;;;8.30;100.00
71059;BME280;70265;47.576;19.270;2024-02-26T02:02:08;97949.78;;;8.30;100.00
71059;BME280;70265;47.576;19.270;2024-02-26T02:03:13;97949.78;;;8.30;100.00
71059;BME280;70265;47.576;19.270;2024-02-26T02:04:14;97948.13;;;8.29;100.00
71059;BME280;70265;47.576;19.270;2024-02-26T02:05:26;97952.53;;;8.28;100.00
71059;BME280;70265;47.576;19.270;2024-02-26T02:06:27;97949.78;;;8.30;100.00
71059;BME280;70265;47.576;19.270;2024-02-26T02:07:31;97943.34;;;8.24;100.00
71059;BME280;70265;47.576;19.270;2024-02-26T02:08:33;97947.59;;;8.25;100.00
71059;BME280;70265;47.576;19.270;2024-02-26T02:09:37;97953.34;;;8.29;100.00
71059;BME280;70265;47.576;19.270;2024-02-26T02:10:38;97954.19;;;8.29;100.00
71059;BME280;70265;47.576;19.270;2024-02-26T02:11:42;97950.84;;;8.27;100.00
71059;BME280;70265;47.576;19.270;2024-02-26T02:12:47;97944.69;;;8.28;100.00
71059;BME280;70265;47.576;19.270;2024-02-26T02:13:50;97951.19;;;8.24;100.00
71059;BME280;70265;47.576;19.270;2024-02-26T02:14:51;97952.69;;;8.27;100.00
71059;BME280;70265;47.576;19.270;2024-02-26T02:15:55;97949.06;;;8.28;100.00
71059;BME280;70265;47.576;19.270;2024-02-26T02:16:56;97944.84;;;8.27;100.00
71059;BME280;70265;47.576;19.270;2024-02-26T02:18:00;97944.03;;;8.26;100.00
71059;BME280;70265;47.576;19.270;2024-02-26T02:19:01;97938.13;;;8.24;100.00
71059;BME280;70265;47.576;19.270;2024-02-26T02:20:09;97943.53;;;8.23;100.00
71059;BME280;70265;47.576;19.270;2024-02-26T02:21:12;97934.00;;;8.13;100.00
71059;BME280;70265;47.576;19.270;2024-02-26T02:22:16;97942.53;;;8.15;100.00
71059;BME280;70265;47.576;19.270;2024-02-26T02:23:16;97943.50;;;8.14;100.00
71059;BME280;70265;47.576;19.270;2024-02-26T02:24:20;97949.53;;;8.15;100.00
71059;BME280;70265;47.576;19.270;2024-02-26T02:25:21;97957.38;;;8.15;100.00
71059;BME280;70265;47.576;19.270;2024-02-26T02:26:24;97945.28;;;8.14;100.00
71059;BME280;70265;47.576;19.270;2024-02-26T02:27:26;97946.44;;;8.11;100.00
71059;BME280;70265;47.576;19.270;2024-02-26T02:28:30;97939.56;;;8.10;100.00
71059;BME280;70265;47.576;19.270;2024-02-26T02:29:31;97940.69;;;8.08;100.00
71059;BME280;70265;47.576;19.270;2024-02-26T02:30:35;97947.56;;;8.09;100.00
71059;BME280;70265;47.576;19.270;2024-02-26T02:31:36;97940.69;;;8.08;100.00
71059;BME280;70265;47.576;19.270;2024-02-26T02:32:40;97933.50;;;8.02;100.00
71059;BME280;70265;47.576;19.270;2024-02-26T02:33:41;97945.56;;;8.03;100.00
71059;BME280;70265;47.576;19.270;2024-02-26T02:34:45;97948.19;;;8.03;100.00
71059;BME280;70265;47.576;19.270;2024-02-26T02:35:47;97949.31;;;8.00;100.00
71059;BME280;70265;47.576;19.270;2024-02-26T02:36:54;97943.09;;;7.93;100.00
71059;BME280;70265;47.576;19.270;2024-02-26T02:37:56;97943.78;;;7.95;100.00
71059;BME280;70265;47.576;19.270;2024-02-26T02:39:00;97943.47;;;7.98;100.00
71059;BME280;70265;47.576;19.270;2024-02-26T02:40:05;97949.50;;;7.99;100.00
71059;BME280;70265;47.576;19.270;2024-02-26T02:41:10;97941.66;;;7.99;100.00
71059;BME280;70265;47.576;19.270;2024-02-26T02:42:11;97940.50;;;7.93;100.00
71059;BME280;70265;47.576;19.270;2024-02-26T02:43:12;97938.69;;;7.94;100.00
71059;BME280;70265;47.576;19.270;2024-02-26T02:44:16;97949.16;;;7.94;100.00
71059;BME280;70265;47.576;19.270;2024-02-26T02:45:17;97941.31;;;7.94;100.00
71059;BME280;70265;47.576;19.270;2024-02-26T02:46:20;97939.84;;;7.91;100.00
71059;BME280;70265;47.576;19.270;2024-02-26T02:47:21;97934.94;;;7.88;100.00
71059;BME280;70265;47.576;19.270;2024-02-26T02:48:24;97934.44;;;7.93;100.00
71059;BME280;70265;47.576;19.270;2024-02-26T02:49:25;97945.06;;;7.91;100.00
71059;BME280;70265;47.576;19.270;2024-02-26T02:50:29;97940.81;;;7.90;100.00
71059;BME280;70265;47.576;19.270;2024-02-26T02:51:30;97940.16;;;7.88;100.00
71059;BME280;70265;47.576;19.270;2024-02-26T02:52:36;97941.94;;;7.88;100.00
71059;BME280;70265;47.576;19.270;2024-02-26T02:53:36;97955.00;;;7.88;100.00
71059;BME280;70265;47.576;19.270;2024-02-26T02:54:40;97947.50;;;7.85;100.00
71059;BME280;70265;47.576;19.270;2024-02-26T02:55:42;97938.34;;;7.81;100.00
71059;BME280;70265;47.576;19.270;2024-02-26T02:56:45;97945.34;;;7.80;100.00
71059;BME280;70265;47.576;19.270;2024-02-26T02:57:46;97943.03;;;7.77;100.00
71059;BME280;70265;47.576;19.270;2024-02-26T02:58:50;97944.19;;;7.75;100.00
71059;BME280;70265;47.576;19.270;2024-02-26T02:59:50;97942.84;;;7.71;100.00
71059;BME280;70265;47.576;19.270;2024-02-26T03:00:54;97944.00;;;7.68;100.00
71059;BME280;70265;47.576;19.270;2024-02-26T03:01:55;97943.19;;;7.67;100.00
71059;BME280;70265;47.576;19.270;2024-02-26T03:02:56;97942.81;;;7.62;100.00
71059;BME280;70265;47.576;19.270;2024-02-26T03:04:03;97952.28;;;7.63;100.00
71059;BME280;70265;47.576;19.270;2024-02-26T03:05:05;97951.63;;;7.61;100.00
71059;BME280;70265;47.576;19.270;2024-02-26T03:06:06;97953.25;;;7.62;100.00
71059;BME280;70265;47.576;19.270;2024-02-26T03:07:09;97950.00;;;7.60;100.00
71059;BME280;70265;47.576;19.270;2024-02-26T03:08:13;97943.81;;;7.61;100.00
71059;BME280;70265;47.576;19.270;2024-02-26T03:09:14;97945.75;;;7.59;100.00
71059;BME280;70265;47.576;19.270;2024-02-26T03:10:17;97943.00;;;7.61;100.00
71059;BME280;70265;47.576;19.270;2024-02-26T03:11:18;97938.41;;;7.63;100.00
71059;BME280;70265;47.576;19.270;2024-02-26T03:12:22;97949.53;;;7.65;100.00
71059;BME280;70265;47.576;19.270;2024-02-26T03:13:23;97938.41;;;7.63;100.00
71059;BME280;70265;47.576;19.270;2024-02-26T03:14:27;97950.19;;;7.67;100.00
71059;BME280;70265;47.576;19.270;2024-02-26T03:15:28;97940.72;;;7.66;100.00
71059;BME280;70265;47.576;19.270;2024-02-26T03:16:32;97947.44;;;7.68;100.00
71059;BME280;70265;47.576;19.270;2024-02-26T03:17:33;97948.06;;;7.71;100.00
71059;BME280;70265;47.576;19.270;2024-02-26T03:18:33;97948.06;;;7.71;100.00
71059;BME280;70265;47.576;19.270;2024-02-26T03:19:37;97941.22;;;7.69;100.00
71059;BME280;70265;47.576;19.270;2024-02-26T03:20:38;97945.63;;;7.69;100.00
71059;BME280;70265;47.576;19.270;2024-02-26T03:21:42;97952.16;;;7.73;100.00
71059;BME280;70265;47.576;19.270;2024-02-26T03:22:42;97952.16;;;7.73;100.00
71059;BME280;70265;47.576;19.270;2024-02-26T03:23:48;97949.41;;;7.75;100.00
71059;BME280;70265;47.576;19.270;2024-02-26T03:24:49;97945.84;;;7.76;100.00
71059;BME280;70265;47.576;19.270;2024-02-26T03:25:53;97950.88;;;7.77;100.00
71059;BME280;70265;47.576;19.270;2024-02-26T03:26:54;97945.84;;;7.76;100.00
71059;BME280;70265;47.576;19.270;2024-02-26T03:27:57;97946.31;;;7.79;100.00
71059;BME280;70265;47.576;19.270;2024-02-26T03:28:59;97937.00;;;7.77;100.00
71059;BME280;70265;47.576;19.270;2024-02-26T03:30:08;97938.47;;;7.79;100.00
71059;BME280;70265;47.576;19.270;2024-02-26T03:31:09;97941.91;;;7.80;100.00
71059;BME280;70265;47.576;19.270;2024-02-26T03:32:13;97941.09;;;7.79;100.00
71059;BME280;70265;47.576;19.270;2024-02-26T03:33:14;97941.91;;;7.80;100.00
71059;BME280;70265;47.576;19.270;2024-02-26T03:34:18;97944.38;;;7.81;100.00
71059;BME280;70265;47.576;19.270;2024-02-26T03:35:20;97939.28;;;7.80;100.00
71059;BME280;70265;47.576;19.270;2024-02-26T03:36:23;97938.34;;;7.81;100.00
71059;BME280;70265;47.576;19.270;2024-02-26T03:37:24;97936.03;;;7.78;100.00
71059;BME280;70265;47.576;19.270;2024-02-26T03:38:28;97936.69;;;7.80;100.00
71059;BME280;70265;47.576;19.270;2024-02-26T03:39:35;97946.31;;;7.79;100.00
71059;BME280;70265;47.576;19.270;2024-02-26T03:40:38;97926.88;;;7.74;100.00
71059;BME280;70265;47.576;19.270;2024-02-26T03:41:39;97944.84;;;7.77;100.00
71059;BME280;70265;47.576;19.270;2024-02-26T03:42:40;97939.63;;;7.77;100.00
71059;BME280;70265;47.576;19.270;2024-02-26T03:43:43;97939.94;;;7.74;100.00
71059;BME280;70265;47.576;19.270;2024-02-26T03:44:45;97938.28;;;7.73;100.00
71059;BME280;70265;47.576;19.270;2024-02-26T03:45:49;97937.50;;;7.72;100.00
71059;BME280;70265;47.576;19.270;2024-02-26T03:46:50;97939.28;;;7.72;100.00
71059;BME280;70265;47.576;19.270;2024-02-26T03:47:51;97941.91;;;7.72;100.00
71059;BME280;70265;47.576;19.270;2024-02-26T03:48:55;97941.72;;;7.73;100.00
71059;BME280;70265;47.576;19.270;2024-02-26T03:49:55;97946.94;;;7.73;100.00
71059;BME280;70265;47.576;19.270;2024-02-26T03:50:59;97942.53;;;7.74;100.00
71059;BME280;70265;47.576;19.270;2024-02-26T03:52:00;97945.00;;;7.75;100.00
71059;BME280;70265;47.576;19.270;2024-02-26T03:53:04;97940.09;;;7.72;100.00
71059;BME280;70265;47.576;19.270;2024-02-26T03:54:05;97942.84;;;7.71;100.00
71059;BME280;70265;47.576;19.270;2024-02-26T03:55:09;97937.97;;;7.67;100.00
71059;BME280;70265;47.576;19.270;2024-02-26T03:56:25;97936.63;;;7.63;100.00
71059;BME280;70265;47.576;19.270;2024-02-26T03:57:26;97933.38;;;7.61;100.00
71059;BME280;70265;47.576;19.270;2024-02-26T03:58:29;97935.31;;;7.59;100.00
71059;BME280;70265;47.576;19.270;2024-02-26T03:59:30;97929.56;;;7.56;100.00
71059;BME280;70265;47.576;19.270;2024-02-26T04:00:37;97935.63;;;7.56;100.00
71059;BME280;70265;47.576;19.270;2024-02-26T04:01:38;97941.78;;;7.55;100.00
71059;BME280;70265;47.576;19.270;2024-02-26T04:02:41;97940.84;;;7.56;100.00
71059;BME280;70265;47.576;19.270;2024-02-26T04:03:42;97933.69;;;7.58;100.00
71059;BME280;70265;47.576;19.270;2024-02-26T04:04:46;97930.25;;;7.58;100.00
71059;BME280;70265;47.576;19.270;2024-02-26T04:05:47;97930.09;;;7.59;100.00
71059;BME280;70265;47.576;19.270;2024-02-26T04:06:50;97936.94;;;7.60;100.00
71059;BME280;70265;47.576;19.270;2024-02-26T04:07:51;97936.63;;;7.63;100.00
71059;BME280;70265;47.576;19.270;2024-02-26T04:08:55;97933.06;;;7.64;100.00
71059;BME280;70265;47.576;19.270;2024-02-26T04:09:56;97933.69;;;7.66;100.00
71059;BME280;70265;47.576;19.270;2024-02-26T04:11:03;97936.16;;;7.68;100.00
71059;BME280;70265;47.576;19.270;2024-02-26T04:12:10;97932.41;;;7.71;100.00
71059;BME280;70265;47.576;19.270;2024-02-26T04:13:14;97932.28;;;7.72;100.00
71059;BME280;70265;47.576;19.270;2024-02-26T04:14:15;97940.44;;;7.77;100.00
71059;BME280;70265;47.576;19.270;2024-02-26T04:15:20;97939.47;;;7.78;100.00
71059;BME280;70265;47.576;19.270;2024-02-26T04:16:21;97940.28;;;7.79;100.00
71059;BME280;70265;47.576;19.270;2024-02-26T04:17:24;97935.72;;;7.81;100.00
71059;BME280;70265;47.576;19.270;2024-02-26T04:18:26;97938.97;;;7.83;100.00
71059;BME280;70265;47.576;19.270;2024-02-26T04:19:29;97941.31;;;7.86;100.00
71059;BME280;70265;47.576;19.270;2024-02-26T04:20:30;97940.63;;;7.84;100.00
71059;BME280;70265;47.576;19.270;2024-02-26T04:21:34;97943.91;;;7.86;100.00
71059;BME280;70265;47.576;19.270;2024-02-26T04:22:35;97944.56;;;7.88;100.00
71059;BME280;70265;47.576;19.270;2024-02-26T04:23:38;97936.38;;;7.83;100.00
71059;BME280;70265;47.576;19.270;2024-02-26T04:24:39;97943.59;;;7.89;100.00
71059;BME280;70265;47.576;19.270;2024-02-26T04:25:43;97944.56;;;7.88;100.00
71059;BME280;70265;47.576;19.270;2024-02-26T04:26:47;97938.19;;;7.90;100.00
71059;BME280;70265;47.576;19.270;2024-02-26T04:27:50;97940.66;;;7.92;100.00
71059;BME280;70265;47.576;19.270;2024-02-26T04:28:51;97939.84;;;7.91;100.00
71059;BME280;70265;47.576;19.270;2024-02-26T04:29:54;97929.34;;;7.83;100.00
71059;BME280;70265;47.576;19.270;2024-02-26T04:30:55;97940.66;;;7.92;100.00
71059;BME280;70265;47.576;19.270;2024-02-26T04:32:03;97945.06;;;7.91;100.00
71059;BME280;70265;47.576;19.270;2024-02-26T04:33:05;97933.16;;;7.89;100.00
71059;BME280;70265;47.576;19.270;2024-02-26T04:34:08;97943.28;;;7.92;100.00
71059;BME280;70265;47.576;19.270;2024-02-26T04:35:10;97941.78;;;7.89;100.00
71059;BME280;70265;47.576;19.270;2024-02-26T04:36:13;97936.38;;;7.83;100.00
71059;BME280;70265;47.576;19.270;2024-02-26T04:37:17;97934.91;;;7.80;100.00
71059;BME280;70265;47.576;19.270;2024-02-26T04:38:18;97933.94;;;7.81;100.00
71059;BME280;70265;47.576;19.270;2024-02-26T04:39:23;97926.56;;;7.77;100.00
71059;BME280;70265;47.576;19.270;2024-02-26T04:40:24;97928.03;;;7.79;100.00
71059;BME280;70265;47.576;19.270;2024-02-26T04:41:29;97917.13;;;7.76;100.00
71059;BME280;70265;47.576;19.270;2024-02-26T04:42:33;97924.78;;;7.77;100.00
71059;BME280;70265;47.576;19.270;2024-02-26T04:43:37;97921.34;;;7.77;100.00
71059;BME280;70265;47.576;19.270;2024-02-26T04:44:41;97921.34;;;7.77;100.00
71059;BME280;70265;47.576;19.270;2024-02-26T04:45:45;97917.75;;;7.78;100.00
71059;BME280;70265;47.576;19.270;2024-02-26T04:46:46;97915.31;;;7.76;100.00
71059;BME280;70265;47.576;19.270;2024-02-26T04:47:49;97915.31;;;7.76;100.00
71059;BME280;70265;47.576;19.270;2024-02-26T04:48:50;97910.91;;;7.77;100.00
71059;BME280;70265;47.576;19.270;2024-02-26T04:49:51;97910.91;;;7.77;100.00
71059;BME280;70265;47.576;19.270;2024-02-26T04:50:55;97905.69;;;7.77;100.00
71059;BME280;70265;47.576;19.270;2024-02-26T04:51:56;97906.50;;;7.77;100.00
71059;BME280;70265;47.576;19.270;2024-02-26T04:52:57;97902.44;;;7.75;100.00
71059;BME280;70265;47.576;19.270;2024-02-26T04:54:00;97904.06;;;7.76;100.00
71059;BME280;70265;47.576;19.270;2024-02-26T04:55:02;97902.25;;;7.76;100.00
71059;BME280;70265;47.576;19.270;2024-02-26T04:56:06;97893.91;;;7.73;100.00
71059;BME280;70265;47.576;19.270;2024-02-26T04:57:07;97902.75;;;7.80;100.00
71059;BME280;70265;47.576;19.270;2024-02-26T04:58:11;97901.13;;;7.79;100.00
71059;BME280;70265;47.576;19.270;2024-02-26T04:59:14;97900.97;;;7.80;100.00
71059;BME280;70265;47.576;19.270;2024-02-26T05:00:16;97902.44;;;7.83;100.00
71059;BME280;70265;47.576;19.270;2024-02-26T05:01:34;97907.81;;;7.81;100.00
71059;BME280;70265;47.576;19.270;2024-02-26T05:02:37;97909.63;;;7.81;100.00
71059;BME280;70265;47.576;19.270;2024-02-26T05:03:41;97906.19;;;7.80;100.00
71059;BME280;70265;47.576;19.270;2024-02-26T05:04:41;97905.38;;;7.80;100.00
71059;BME280;70265;47.576;19.270;2024-02-26T05:05:45;97902.75;;;7.80;100.00
71059;BME280;70265;47.576;19.270;2024-02-26T05:06:54;97899.81;;;7.83;100.00
71059;BME280;70265;47.576;19.270;2024-02-26T05:07:57;97907.00;;;7.81;100.00
71059;BME280;70265;47.576;19.270;2024-02-26T05:09:01;97906.34;;;7.79;100.00
71059;BME280;70265;47.576;19.270;2024-02-26T05:10:11;97909.63;;;7.81;100.00
71059;BME280;70265;47.576;19.270;2024-02-26T05:11:14;97903.75;;;7.79;100.00
71059;BME280;70265;47.576;19.270;2024-02-26T05:12:18;97912.09;;;7.82;100.00
71059;BME280;70265;47.576;19.270;2024-02-26T05:13:22;97903.94;;;7.85;100.00
71059;BME280;70265;47.576;19.270;2024-02-26T05:14:25;97904.75;;;7.86;100.00
71059;BME280;70265;47.576;19.270;2024-02-26T05:15:26;97912.72;;;7.84;100.00
71059;BME280;70265;47.576;19.270;2024-02-26T05:16:31;97908.34;;;7.85;100.00
71059;BME280;70265;47.576;19.270;2024-02-26T05:17:32;97909.97;;;7.86;100.00
71059;BME280;70265;47.576;19.270;2024-02-26T05:18:35;97907.66;;;7.83;100.00
71059;BME280;70265;47.576;19.270;2024-02-26T05:19:36;97895.75;;;7.80;100.00
71059;BME280;70265;47.576;19.270;2024-02-26T05:20:40;97907.38;;;7.86;100.00
71059;BME280;70265;47.576;19.270;2024-02-26T05:21:41;97903.09;;;7.85;100.00
71059;BME280;70265;47.576;19.270;2024-02-26T05:22:44;97900.31;;;7.78;100.00
71059;BME280;70265;47.576;19.270;2024-02-26T05:23:45;97902.59;;;7.81;100.00
71059;BME280;70265;47.576;19.270;2024-02-26T05:24:49;97900.81;;;7.82;100.00
71059;BME280;70265;47.576;19.270;2024-02-26T05:25:51;97895.91;;;7.87;100.00
71059;BME280;70265;47.576;19.270;2024-02-26T05:26:54;97897.88;;;7.85;100.00
71059;BME280;70265;47.576;19.270;2024-02-26T05:27:56;97899.81;;;7.83;100.00
71059;BME280;70265;47.576;19.270;2024-02-26T05:29:02;97893.50;;;7.85;100.00